METAR Data
IDs: Format: Raw Decoded Include TAF

Data at: 2158 UTC 18 Apr 2021

KMZZ 182135Z AUTO 31009KT 10SM SCT075 OVC090 15/M02 A2989 RMK AO2 T01521022